sensor_id;sensor_type;location;lat;lon;timestamp;pressure;altitude;pressure_sealevel;temperature;humidity
5462;BME280;912;48.130;11.348;2022-07-17T00:00:21;96206.98;;;13.78;100.00
5462;BME280;912;48.130;11.348;2022-07-17T00:03:03;96208.66;;;13.48;100.00
5462;BME280;912;48.130;11.348;2022-07-17T00:05:45;96211.97;;;13.43;100.00
5462;BME280;912;48.130;11.348;2022-07-17T00:08:26;96215.63;;;13.36;100.00
5462;BME280;912;48.130;11.348;2022-07-17T00:11:08;96209.59;;;13.22;100.00
5462;BME280;912;48.130;11.348;2022-07-17T00:13:53;96208.94;;;13.22;100.00
5462;BME280;912;48.130;11.348;2022-07-17T00:16:35;96210.17;;;13.23;100.00
5462;BME280;912;48.130;11.348;2022-07-17T00:19:16;96210.89;;;13.31;100.00
5462;BME280;912;48.130;11.348;2022-07-17T00:22:04;96207.86;;;13.49;100.00
5462;BME280;912;48.130;11.348;2022-07-17T00:24:48;96207.02;;;13.45;100.00
5462;BME280;912;48.130;11.348;2022-07-17T00:27:30;96209.19;;;13.49;100.00
5462;BME280;912;48.130;11.348;2022-07-17T00:30:11;96207.56;;;13.23;100.00
5462;BME280;912;48.130;11.348;2022-07-17T00:32:53;96202.66;;;13.06;100.00
5462;BME280;912;48.130;11.348;2022-07-17T00:35:50;96201.03;;;12.87;100.00
5462;BME280;912;48.130;11.348;2022-07-17T00:38:32;96201.88;;;12.81;100.00
5462;BME280;912;48.130;11.348;2022-07-17T00:41:14;96212.92;;;12.64;100.00
5462;BME280;912;48.130;11.348;2022-07-17T00:44:02;96210.34;;;12.73;100.00
5462;BME280;912;48.130;11.348;2022-07-17T00:46:38;96212.16;;;12.69;100.00
5462;BME280;912;48.130;11.348;2022-07-17T00:49:19;96209.89;;;12.54;100.00
5462;BME280;912;48.130;11.348;2022-07-17T00:52:01;96204.05;;;12.58;100.00
5462;BME280;912;48.130;11.348;2022-07-17T00:54:49;96207.50;;;12.65;100.00
5462;BME280;912;48.130;11.348;2022-07-17T00:57:32;96198.17;;;12.66;100.00
5462;BME280;912;48.130;11.348;2022-07-17T01:00:20;96200.84;;;12.78;100.00
5462;BME280;912;48.130;11.348;2022-07-17T01:03:08;96204.73;;;12.80;100.00
5462;BME280;912;48.130;11.348;2022-07-17T01:05:50;96201.16;;;12.83;100.00
5462;BME280;912;48.130;11.348;2022-07-17T01:08:32;96203.00;;;12.67;100.00
5462;BME280;912;48.130;11.348;2022-07-17T01:11:19;96203.13;;;12.64;100.00
5462;BME280;912;48.130;11.348;2022-07-17T01:14:07;96201.94;;;12.55;100.00
5462;BME280;912;48.130;11.348;2022-07-17T01:16:49;96195.45;;;12.49;100.00
5462;BME280;912;48.130;11.348;2022-07-17T01:19:36;96200.15;;;12.40;100.00
5462;BME280;912;48.130;11.348;2022-07-17T01:22:24;96200.28;;;12.35;100.00
5462;BME280;912;48.130;11.348;2022-07-17T01:25:07;96199.80;;;12.26;100.00
5462;BME280;912;48.130;11.348;2022-07-17T01:27:49;96200.97;;;12.30;100.00
5462;BME280;912;48.130;11.348;2022-07-17T01:30:30;96200.00;;;12.29;100.00
5462;BME280;912;48.130;11.348;2022-07-17T01:35:51;96200.43;;;12.18;100.00
5462;BME280;912;48.130;11.348;2022-07-17T01:38:32;96200.31;;;12.15;100.00
5462;BME280;912;48.130;11.348;2022-07-17T01:41:14;96197.89;;;12.08;100.00
5462;BME280;912;48.130;11.348;2022-07-17T01:43:56;96202.21;;;12.06;100.00
5462;BME280;912;48.130;11.348;2022-07-17T01:46:38;96201.76;;;11.96;100.00
5462;BME280;912;48.130;11.348;2022-07-17T01:49:19;96206.72;;;11.96;100.00
5462;BME280;912;48.130;11.348;2022-07-17T01:52:01;96205.12;;;11.94;100.00
5462;BME280;912;48.130;11.348;2022-07-17T01:54:43;96200.91;;;11.90;100.00
5462;BME280;912;48.130;11.348;2022-07-17T01:57:24;96202.27;;;11.89;100.00
5462;BME280;912;48.130;11.348;2022-07-17T02:00:11;96200.30;;;11.92;100.00
5462;BME280;912;48.130;11.348;2022-07-17T02:02:51;96198.88;;;11.93;100.00
5462;BME280;912;48.130;11.348;2022-07-17T02:05:40;96197.80;;;11.87;100.00
5462;BME280;912;48.130;11.348;2022-07-17T02:08:22;96196.27;;;11.88;100.00
5462;BME280;912;48.130;11.348;2022-07-17T02:11:04;96197.14;;;11.93;100.00
5462;BME280;912;48.130;11.348;2022-07-17T02:13:45;96194.91;;;11.97;100.00
5462;BME280;912;48.130;11.348;2022-07-17T02:16:27;96188.30;;;11.92;100.00
5462;BME280;912;48.130;11.348;2022-07-17T02:19:16;96187.25;;;11.83;100.00
5462;BME280;912;48.130;11.348;2022-07-17T02:22:00;96190.94;;;11.84;100.00
5462;BME280;912;48.130;11.348;2022-07-17T02:24:41;96196.66;;;11.74;100.00
5462;BME280;912;48.130;11.348;2022-07-17T02:27:23;96192.41;;;11.69;100.00
5462;BME280;912;48.130;11.348;2022-07-17T02:30:07;96192.45;;;11.66;100.00
5462;BME280;912;48.130;11.348;2022-07-17T02:32:48;96190.81;;;11.66;100.00
5462;BME280;912;48.130;11.348;2022-07-17T02:35:51;96195.80;;;11.67;100.00
5462;BME280;912;48.130;11.348;2022-07-17T02:38:33;96194.25;;;11.65;100.00
5462;BME280;912;48.130;11.348;2022-07-17T02:41:17;96190.48;;;11.58;100.00
5462;BME280;912;48.130;11.348;2022-07-17T02:43:59;96189.70;;;11.50;100.00
5462;BME280;912;48.130;11.348;2022-07-17T02:46:41;96185.98;;;11.48;100.00
5462;BME280;912;48.130;11.348;2022-07-17T02:49:22;96186.14;;;11.66;100.00
5462;BME280;912;48.130;11.348;2022-07-17T02:52:04;96182.55;;;11.72;100.00
5462;BME280;912;48.130;11.348;2022-07-17T02:54:46;96184.03;;;11.58;100.00
5462;BME280;912;48.130;11.348;2022-07-17T02:57:27;96185.86;;;11.60;100.00
5462;BME280;912;48.130;11.348;2022-07-17T03:00:11;96187.26;;;11.60;100.00
5462;BME280;912;48.130;11.348;2022-07-17T03:02:52;96188.95;;;11.67;100.00
5462;BME280;912;48.130;11.348;2022-07-17T03:05:39;96190.89;;;11.53;100.00
5462;BME280;912;48.130;11.348;2022-07-17T03:08:27;96192.64;;;11.63;100.00
5462;BME280;912;48.130;11.348;2022-07-17T03:11:09;96196.24;;;11.44;100.00
5462;BME280;912;48.130;11.348;2022-07-17T03:13:50;96191.59;;;11.35;100.00
5462;BME280;912;48.130;11.348;2022-07-17T03:16:32;96193.91;;;11.16;100.00
5462;BME280;912;48.130;11.348;2022-07-17T03:19:14;96190.30;;;11.12;100.00
5462;BME280;912;48.130;11.348;2022-07-17T03:21:56;96190.51;;;11.08;100.00
5462;BME280;912;48.130;11.348;2022-07-17T03:24:43;96184.53;;;11.08;100.00
5462;BME280;912;48.130;11.348;2022-07-17T03:27:31;96187.60;;;11.05;100.00
5462;BME280;912;48.130;11.348;2022-07-17T03:30:13;96185.59;;;11.01;100.00
5462;BME280;912;48.130;11.348;2022-07-17T03:32:54;96181.66;;;11.03;100.00
5462;BME280;912;48.130;11.348;2022-07-17T03:35:50;96185.56;;;10.96;100.00
5462;BME280;912;48.130;11.348;2022-07-17T03:38:32;96184.49;;;10.95;100.00
5462;BME280;912;48.130;11.348;2022-07-17T03:41:14;96185.83;;;10.99;100.00
5462;BME280;912;48.130;11.348;2022-07-17T03:43:59;96185.66;;;11.00;100.00
5462;BME280;912;48.130;11.348;2022-07-17T03:46:40;96182.55;;;11.01;100.00
5462;BME280;912;48.130;11.348;2022-07-17T03:49:27;96184.16;;;10.99;100.00
5462;BME280;912;48.130;11.348;2022-07-17T03:52:09;96180.09;;;11.07;100.00
5462;BME280;912;48.130;11.348;2022-07-17T03:54:50;96181.28;;;11.07;100.00
5462;BME280;912;48.130;11.348;2022-07-17T03:57:32;96182.36;;;11.08;100.00
5462;BME280;912;48.130;11.348;2022-07-17T04:00:14;96184.16;;;11.08;100.00
5462;BME280;912;48.130;11.348;2022-07-17T04:02:55;96181.89;;;11.06;100.00
5462;BME280;912;48.130;11.348;2022-07-17T04:05:40;96187.70;;;11.18;100.00
5462;BME280;912;48.130;11.348;2022-07-17T04:08:22;96188.26;;;11.10;100.00
5462;BME280;912;48.130;11.348;2022-07-17T04:11:12;96198.24;;;11.05;100.00
5462;BME280;912;48.130;11.348;2022-07-17T04:14:00;96204.53;;;11.01;100.00
5462;BME280;912;48.130;11.348;2022-07-17T04:16:42;96200.14;;;11.05;100.00
5462;BME280;912;48.130;11.348;2022-07-17T04:19:24;96198.49;;;11.07;100.00
5462;BME280;912;48.130;11.348;2022-07-17T04:22:05;96203.23;;;11.17;100.00
5462;BME280;912;48.130;11.348;2022-07-17T04:27:21;96205.03;;;11.41;100.00
5462;BME280;912;48.130;11.348;2022-07-17T04:30:03;96202.77;;;11.39;100.00
5462;BME280;912;48.130;11.348;2022-07-17T04:32:45;96205.67;;;11.46;100.00
5462;BME280;912;48.130;11.348;2022-07-17T04:35:53;96203.78;;;11.49;100.00
5462;BME280;912;48.130;11.348;2022-07-17T04:38:35;96204.80;;;11.57;100.00
5462;BME280;912;48.130;11.348;2022-07-17T04:41:22;96205.36;;;11.59;100.00
5462;BME280;912;48.130;11.348;2022-07-17T04:44:07;96206.59;;;11.78;100.00
5462;BME280;912;48.130;11.348;2022-07-17T04:46:51;96207.23;;;11.90;100.00
5462;BME280;912;48.130;11.348;2022-07-17T04:49:35;96198.64;;;12.01;100.00
5462;BME280;912;48.130;11.348;2022-07-17T04:52:17;96205.97;;;12.25;100.00
5462;BME280;912;48.130;11.348;2022-07-17T04:54:59;96205.88;;;12.28;100.00
5462;BME280;912;48.130;11.348;2022-07-17T04:57:40;96207.54;;;12.40;100.00
5462;BME280;912;48.130;11.348;2022-07-17T05:00:22;96208.89;;;12.52;100.00
5462;BME280;912;48.130;11.348;2022-07-17T05:03:06;96209.38;;;12.67;100.00
5462;BME280;912;48.130;11.348;2022-07-17T05:05:54;96203.58;;;12.77;100.00
5462;BME280;912;48.130;11.348;2022-07-17T05:08:41;96199.34;;;12.93;100.00
5462;BME280;912;48.130;11.348;2022-07-17T05:11:23;96200.84;;;13.04;100.00
5462;BME280;912;48.130;11.348;2022-07-17T05:14:11;96203.91;;;13.14;100.00
5462;BME280;912;48.130;11.348;2022-07-17T05:16:52;96202.94;;;13.28;100.00
5462;BME280;912;48.130;11.348;2022-07-17T05:19:34;96201.55;;;13.44;100.00
5462;BME280;912;48.130;11.348;2022-07-17T05:22:16;96198.80;;;13.55;100.00
5462;BME280;912;48.130;11.348;2022-07-17T05:24:57;96201.73;;;13.76;100.00
5462;BME280;912;48.130;11.348;2022-07-17T05:27:45;96198.47;;;13.88;100.00
5462;BME280;912;48.130;11.348;2022-07-17T05:30:33;96201.45;;;14.08;100.00
5462;BME280;912;48.130;11.348;2022-07-17T05:35:50;96202.74;;;14.35;100.00
5462;BME280;912;48.130;11.348;2022-07-17T05:38:32;96198.44;;;14.49;100.00
5462;BME280;912;48.130;11.348;2022-07-17T05:41:13;96199.85;;;14.59;100.00
5462;BME280;912;48.130;11.348;2022-07-17T05:43:58;96199.00;;;14.80;100.00
5462;BME280;912;48.130;11.348;2022-07-17T05:46:42;96199.11;;;15.00;100.00
5462;BME280;912;48.130;11.348;2022-07-17T05:49:30;96195.67;;;15.07;100.00
5462;BME280;912;48.130;11.348;2022-07-17T05:52:11;96197.77;;;15.20;100.00
5462;BME280;912;48.130;11.348;2022-07-17T05:57:27;96196.59;;;15.53;100.00
5462;BME280;912;48.130;11.348;2022-07-17T06:00:10;96201.25;;;15.79;100.00
5462;BME280;912;48.130;11.348;2022-07-17T06:02:54;96193.73;;;15.92;100.00
5462;BME280;912;48.130;11.348;2022-07-17T06:05:36;96194.70;;;16.05;100.00
5462;BME280;912;48.130;11.348;2022-07-17T06:08:17;96196.70;;;16.21;100.00
5462;BME280;912;48.130;11.348;2022-07-17T06:10:59;96190.77;;;16.35;100.00
5462;BME280;912;48.130;11.348;2022-07-17T06:13:41;96193.61;;;16.51;100.00
5462;BME280;912;48.130;11.348;2022-07-17T06:16:23;96197.78;;;16.72;100.00
5462;BME280;912;48.130;11.348;2022-07-17T06:19:10;96198.66;;;16.88;100.00
5462;BME280;912;48.130;11.348;2022-07-17T06:21:54;96196.36;;;17.10;100.00
5462;BME280;912;48.130;11.348;2022-07-17T06:24:36;96196.86;;;17.23;100.00
5462;BME280;912;48.130;11.348;2022-07-17T06:27:17;96197.67;;;17.39;100.00
5462;BME280;912;48.130;11.348;2022-07-17T06:29:59;96207.52;;;17.53;100.00
5462;BME280;912;48.130;11.348;2022-07-17T06:32:41;96207.73;;;17.67;100.00
5462;BME280;912;48.130;11.348;2022-07-17T06:35:53;96205.21;;;17.96;100.00
5462;BME280;912;48.130;11.348;2022-07-17T06:38:34;96199.63;;;18.20;100.00
5462;BME280;912;48.130;11.348;2022-07-17T06:43:51;96198.17;;;18.41;100.00
5462;BME280;912;48.130;11.348;2022-07-17T06:46:36;96201.52;;;18.55;98.96
5462;BME280;912;48.130;11.348;2022-07-17T06:49:23;96203.38;;;18.59;100.00
5462;BME280;912;48.130;11.348;2022-07-17T06:52:11;96205.25;;;18.28;100.00
5462;BME280;912;48.130;11.348;2022-07-17T06:54:53;96207.77;;;17.88;100.00
5462;BME280;912;48.130;11.348;2022-07-17T06:57:40;96211.97;;;17.66;100.00
5462;BME280;912;48.130;11.348;2022-07-17T07:00:22;96212.36;;;17.60;100.00
5462;BME280;912;48.130;11.348;2022-07-17T07:03:04;96212.09;;;17.38;100.00
5462;BME280;912;48.130;11.348;2022-07-17T07:05:45;96211.35;;;17.24;100.00
5462;BME280;912;48.130;11.348;2022-07-17T07:08:33;96214.14;;;17.53;100.00
5462;BME280;912;48.130;11.348;2022-07-17T07:11:15;96212.81;;;17.62;100.00
5462;BME280;912;48.130;11.348;2022-07-17T07:14:03;96215.24;;;17.50;100.00
5462;BME280;912;48.130;11.348;2022-07-17T07:16:50;96212.22;;;17.72;100.00
5462;BME280;912;48.130;11.348;2022-07-17T07:19:32;96215.38;;;17.82;100.00
5462;BME280;912;48.130;11.348;2022-07-17T07:22:20;96215.05;;;18.07;100.00
5462;BME280;912;48.130;11.348;2022-07-17T07:25:01;96215.00;;;18.07;100.00
5462;BME280;912;48.130;11.348;2022-07-17T07:27:43;96215.89;;;18.20;100.00
5462;BME280;912;48.130;11.348;2022-07-17T07:30:25;96212.93;;;18.43;100.00
5462;BME280;912;48.130;11.348;2022-07-17T07:35:50;96206.60;;;19.05;100.00
5462;BME280;912;48.130;11.348;2022-07-17T07:38:38;96207.17;;;19.42;100.00
5462;BME280;912;48.130;11.348;2022-07-17T07:41:20;96205.84;;;19.67;98.47
5462;BME280;912;48.130;11.348;2022-07-17T07:44:07;96205.45;;;20.05;97.28
5462;BME280;912;48.130;11.348;2022-07-17T07:46:55;96200.13;;;20.66;91.58
5462;BME280;912;48.130;11.348;2022-07-17T07:49:37;96203.13;;;20.95;87.18
5462;BME280;912;48.130;11.348;2022-07-17T07:52:19;96205.34;;;21.29;85.92
5462;BME280;912;48.130;11.348;2022-07-17T07:55:00;96205.03;;;21.75;82.02
5462;BME280;912;48.130;11.348;2022-07-17T07:57:45;96206.36;;;21.85;81.51
5462;BME280;912;48.130;11.348;2022-07-17T08:00:27;96203.59;;;22.05;75.08
5462;BME280;912;48.130;11.348;2022-07-17T08:03:17;96203.00;;;22.10;76.69
5462;BME280;912;48.130;11.348;2022-07-17T08:06:05;96205.72;;;22.34;76.41
5462;BME280;912;48.130;11.348;2022-07-17T08:08:53;96198.70;;;22.66;74.82
5462;BME280;912;48.130;11.348;2022-07-17T08:11:40;96197.06;;;22.85;69.83
5462;BME280;912;48.130;11.348;2022-07-17T08:14:22;96199.20;;;23.43;67.53
5462;BME280;912;48.130;11.348;2022-07-17T08:17:04;96204.07;;;23.30;62.67
5462;BME280;912;48.130;11.348;2022-07-17T08:19:45;96200.98;;;23.45;66.01
5462;BME280;912;48.130;11.348;2022-07-17T08:22:33;96202.92;;;23.42;61.93
5462;BME280;912;48.130;11.348;2022-07-17T08:25:15;96206.74;;;23.52;62.48
5462;BME280;912;48.130;11.348;2022-07-17T08:28:06;96205.78;;;23.92;61.75
5462;BME280;912;48.130;11.348;2022-07-17T08:30:48;96205.70;;;24.23;61.16
5462;BME280;912;48.130;11.348;2022-07-17T08:38:30;96213.02;;;24.56;58.03
5462;BME280;912;48.130;11.348;2022-07-17T08:41:15;96213.69;;;24.77;58.82
5462;BME280;912;48.130;11.348;2022-07-17T08:43:57;96218.95;;;24.58;54.76
5462;BME280;912;48.130;11.348;2022-07-17T08:46:41;96223.36;;;24.70;58.57
5462;BME280;912;48.130;11.348;2022-07-17T08:49:23;96219.42;;;24.89;56.48
5462;BME280;912;48.130;11.348;2022-07-17T08:52:05;96221.98;;;25.17;55.55
5462;BME280;912;48.130;11.348;2022-07-17T08:54:48;96216.72;;;25.40;55.66
5462;BME280;912;48.130;11.348;2022-07-17T08:57:37;96214.67;;;25.34;52.28
5462;BME280;912;48.130;11.348;2022-07-17T09:00:21;96211.02;;;25.68;55.63
5462;BME280;912;48.130;11.348;2022-07-17T09:03:04;96215.39;;;25.68;56.11
5462;BME280;912;48.130;11.348;2022-07-17T09:05:51;96216.48;;;26.03;55.35
5462;BME280;912;48.130;11.348;2022-07-17T09:08:39;96216.20;;;26.13;55.13
5462;BME280;912;48.130;11.348;2022-07-17T09:11:20;96215.18;;;26.47;54.11
5462;BME280;912;48.130;11.348;2022-07-17T09:14:02;96209.27;;;26.78;53.03
5462;BME280;912;48.130;11.348;2022-07-17T09:16:52;96206.14;;;26.80;51.42
5462;BME280;912;48.130;11.348;2022-07-17T09:19:41;96214.25;;;27.36;51.14
5462;BME280;912;48.130;11.348;2022-07-17T09:22:23;96211.41;;;27.80;50.23
5462;BME280;912;48.130;11.348;2022-07-17T09:25:06;96208.52;;;27.34;48.13
5462;BME280;912;48.130;11.348;2022-07-17T09:27:48;96207.06;;;27.68;46.31
5462;BME280;912;48.130;11.348;2022-07-17T09:30:32;96211.80;;;29.57;44.90
5462;BME280;912;48.130;11.348;2022-07-17T09:35:53;96202.86;;;32.61;45.52
5462;BME280;912;48.130;11.348;2022-07-17T09:38:37;96209.81;;;32.88;43.23
5462;BME280;912;48.130;11.348;2022-07-17T09:41:25;96214.52;;;33.85;40.71
5462;BME280;912;48.130;11.348;2022-07-17T09:44:08;96207.50;;;33.65;38.20
5462;BME280;912;48.130;11.348;2022-07-17T09:49:30;96208.23;;;34.17;39.05
5462;BME280;912;48.130;11.348;2022-07-17T09:52:13;96206.84;;;35.98;38.13
5462;BME280;912;48.130;11.348;2022-07-17T09:54:57;96201.69;;;36.40;35.71
5462;BME280;912;48.130;11.348;2022-07-17T09:57:42;96193.98;;;36.84;34.96
5462;BME280;912;48.130;11.348;2022-07-17T10:00:23;96200.09;;;36.16;37.58
5462;BME280;912;48.130;11.348;2022-07-17T10:03:05;96192.20;;;37.17;32.72
5462;BME280;912;48.130;11.348;2022-07-17T10:05:47;96198.69;;;36.25;32.35
5462;BME280;912;48.130;11.348;2022-07-17T10:08:29;96190.94;;;37.40;30.42
5462;BME280;912;48.130;11.348;2022-07-17T10:11:16;96189.26;;;37.53;31.84
5462;BME280;912;48.130;11.348;2022-07-17T10:14:05;96187.31;;;38.48;32.90
5462;BME280;912;48.130;11.348;2022-07-17T10:16:46;96190.42;;;39.47;32.01
5462;BME280;912;48.130;11.348;2022-07-17T10:19:28;96205.83;;;36.01;32.03
5462;BME280;912;48.130;11.348;2022-07-17T10:22:09;96203.31;;;37.43;32.57
5462;BME280;912;48.130;11.348;2022-07-17T10:24:53;96205.63;;;37.44;30.90
5462;BME280;912;48.130;11.348;2022-07-17T10:30:33;96204.35;;;37.45;29.58
5462;BME280;912;48.130;11.348;2022-07-17T10:35:53;96209.12;;;38.45;29.34
5462;BME280;912;48.130;11.348;2022-07-17T10:38:40;96200.86;;;39.21;30.95
5462;BME280;912;48.130;11.348;2022-07-17T10:41:19;96191.97;;;38.55;29.06
5462;BME280;912;48.130;11.348;2022-07-17T10:43:58;96198.35;;;38.27;30.63
5462;BME280;912;48.130;11.348;2022-07-17T10:46:40;96196.66;;;38.61;30.22
5462;BME280;912;48.130;11.348;2022-07-17T10:49:23;96188.86;;;39.02;28.69
5462;BME280;912;48.130;11.348;2022-07-17T10:52:11;96194.09;;;39.03;27.54
5462;BME280;912;48.130;11.348;2022-07-17T10:54:58;96196.70;;;39.76;28.99
5462;BME280;912;48.130;11.348;2022-07-17T10:57:46;96185.17;;;39.86;26.92
5462;BME280;912;48.130;11.348;2022-07-17T11:00:28;96183.25;;;39.52;27.45
5462;BME280;912;48.130;11.348;2022-07-17T11:03:11;96186.98;;;37.90;29.52
5462;BME280;912;48.130;11.348;2022-07-17T11:05:53;96179.84;;;37.52;28.76
5462;BME280;912;48.130;11.348;2022-07-17T11:08:39;96181.30;;;39.15;28.60
5462;BME280;912;48.130;11.348;2022-07-17T11:11:19;96173.90;;;40.78;26.90
5462;BME280;912;48.130;11.348;2022-07-17T11:14:25;96171.65;;;39.26;26.21
5462;BME280;912;48.130;11.348;2022-07-17T11:17:07;96169.01;;;38.57;26.87
5462;BME280;912;48.130;11.348;2022-07-17T11:19:49;96169.03;;;39.76;27.07
5462;BME280;912;48.130;11.348;2022-07-17T11:22:33;96158.79;;;39.86;26.61
5462;BME280;912;48.130;11.348;2022-07-17T11:25:21;96157.33;;;39.75;26.30
5462;BME280;912;48.130;11.348;2022-07-17T11:28:08;96154.17;;;40.71;26.34
5462;BME280;912;48.130;11.348;2022-07-17T11:30:50;96150.22;;;41.46;26.74
5462;BME280;912;48.130;11.348;2022-07-17T11:35:51;96150.22;;;39.33;26.21
5462;BME280;912;48.130;11.348;2022-07-17T11:41:10;96142.37;;;40.54;25.02
5462;BME280;912;48.130;11.348;2022-07-17T11:43:52;96147.56;;;39.53;27.26
5462;BME280;912;48.130;11.348;2022-07-17T11:46:37;96144.32;;;40.59;24.29
5462;BME280;912;48.130;11.348;2022-07-17T11:49:24;96141.81;;;39.11;25.09
5462;BME280;912;48.130;11.348;2022-07-17T11:52:11;96143.16;;;38.91;24.59
5462;BME280;912;48.130;11.348;2022-07-17T11:54:53;96144.94;;;40.29;26.34
5462;BME280;912;48.130;11.348;2022-07-17T11:57:41;96132.29;;;41.27;24.74
5462;BME280;912;48.130;11.348;2022-07-17T12:00:18;96130.63;;;41.20;24.38
5462;BME280;912;48.130;11.348;2022-07-17T12:02:59;96137.55;;;38.18;26.47
5462;BME280;912;48.130;11.348;2022-07-17T12:05:40;96135.84;;;41.25;25.00
5462;BME280;912;48.130;11.348;2022-07-17T12:08:23;96138.99;;;39.74;26.64
5462;BME280;912;48.130;11.348;2022-07-17T12:11:07;96129.97;;;41.61;25.14
5462;BME280;912;48.130;11.348;2022-07-17T12:13:48;96133.00;;;41.83;25.55
5462;BME280;912;48.130;11.348;2022-07-17T12:16:30;96140.48;;;39.42;25.77
5462;BME280;912;48.130;11.348;2022-07-17T12:19:12;96128.52;;;41.54;25.01
5462;BME280;912;48.130;11.348;2022-07-17T12:22:01;96128.70;;;40.91;24.26
5462;BME280;912;48.130;11.348;2022-07-17T12:24:45;96120.28;;;41.42;24.27
5462;BME280;912;48.130;11.348;2022-07-17T12:27:27;96120.64;;;41.28;23.70
5462;BME280;912;48.130;11.348;2022-07-17T12:30:09;96126.36;;;39.73;27.18
5462;BME280;912;48.130;11.348;2022-07-17T12:32:51;96121.52;;;40.45;25.06
5462;BME280;912;48.130;11.348;2022-07-17T12:35:50;96124.98;;;40.33;24.30
5462;BME280;912;48.130;11.348;2022-07-17T12:38:32;96128.37;;;39.61;25.64
5462;BME280;912;48.130;11.348;2022-07-17T12:41:13;96130.84;;;40.76;25.45
5462;BME280;912;48.130;11.348;2022-07-17T12:43:55;96124.95;;;42.10;24.57
5462;BME280;912;48.130;11.348;2022-07-17T12:46:40;96127.47;;;41.52;25.44
5462;BME280;912;48.130;11.348;2022-07-17T12:49:22;96120.97;;;42.02;23.96
5462;BME280;912;48.130;11.348;2022-07-17T12:52:04;96131.17;;;40.40;24.66
5462;BME280;912;48.130;11.348;2022-07-17T12:54:46;96129.51;;;40.34;25.51
5462;BME280;912;48.130;11.348;2022-07-17T12:57:34;96112.23;;;41.81;24.06
5462;BME280;912;48.130;11.348;2022-07-17T13:00:22;96114.76;;;40.51;24.49
5462;BME280;912;48.130;11.348;2022-07-17T13:03:07;96117.13;;;40.49;24.94
5462;BME280;912;48.130;11.348;2022-07-17T13:05:48;96114.49;;;41.15;24.47
5462;BME280;912;48.130;11.348;2022-07-17T13:08:30;96109.47;;;42.44;23.19
5462;BME280;912;48.130;11.348;2022-07-17T13:11:12;96115.23;;;39.55;25.05
5462;BME280;912;48.130;11.348;2022-07-17T13:13:57;96117.34;;;39.92;25.23
5462;BME280;912;48.130;11.348;2022-07-17T13:16:39;96111.17;;;41.09;25.72
5462;BME280;912;48.130;11.348;2022-07-17T13:19:20;96109.24;;;41.16;23.87
5462;BME280;912;48.130;11.348;2022-07-17T13:22:05;96105.43;;;41.56;24.04
5462;BME280;912;48.130;11.348;2022-07-17T13:24:47;96101.78;;;41.76;23.07
5462;BME280;912;48.130;11.348;2022-07-17T13:27:28;96113.39;;;39.80;24.53
5462;BME280;912;48.130;11.348;2022-07-17T13:30:11;96108.11;;;40.98;23.65
5462;BME280;912;48.130;11.348;2022-07-17T13:32:52;96105.17;;;40.73;24.67
5462;BME280;912;48.130;11.348;2022-07-17T13:35:56;96110.15;;;40.81;25.10
5462;BME280;912;48.130;11.348;2022-07-17T13:38:38;96105.45;;;41.67;24.03
5462;BME280;912;48.130;11.348;2022-07-17T13:41:22;96107.23;;;39.01;25.24
5462;BME280;912;48.130;11.348;2022-07-17T13:44:05;96107.55;;;40.45;24.92
5462;BME280;912;48.130;11.348;2022-07-17T13:46:46;96106.70;;;41.35;24.23
5462;BME280;912;48.130;11.348;2022-07-17T13:49:31;96111.25;;;41.12;23.61
5462;BME280;912;48.130;11.348;2022-07-17T13:52:13;96109.39;;;39.51;24.86
5462;BME280;912;48.130;11.348;2022-07-17T13:54:55;96108.41;;;40.34;24.06
5462;BME280;912;48.130;11.348;2022-07-17T13:57:36;96108.55;;;38.80;25.74
5462;BME280;912;48.130;11.348;2022-07-17T14:00:18;96113.11;;;38.95;25.31
5462;BME280;912;48.130;11.348;2022-07-17T14:03:00;96113.65;;;40.16;23.21
5462;BME280;912;48.130;11.348;2022-07-17T14:05:44;96111.42;;;40.04;25.08
5462;BME280;912;48.130;11.348;2022-07-17T14:08:29;96111.33;;;40.09;23.05
5462;BME280;912;48.130;11.348;2022-07-17T14:11:11;96111.86;;;39.33;23.51
5462;BME280;912;48.130;11.348;2022-07-17T14:13:58;96109.23;;;39.35;24.25
5462;BME280;912;48.130;11.348;2022-07-17T14:16:40;96107.11;;;40.59;24.51
5462;BME280;912;48.130;11.348;2022-07-17T14:19:28;96110.36;;;40.09;23.20
5462;BME280;912;48.130;11.348;2022-07-17T14:22:15;96108.71;;;39.69;24.60
5462;BME280;912;48.130;11.348;2022-07-17T14:25:04;96099.37;;;42.44;22.54
5462;BME280;912;48.130;11.348;2022-07-17T14:27:52;96093.08;;;42.83;21.06
5462;BME280;912;48.130;11.348;2022-07-17T14:30:34;96094.45;;;42.28;21.36
5462;BME280;912;48.130;11.348;2022-07-17T14:35:53;96093.06;;;41.41;22.33
5462;BME280;912;48.130;11.348;2022-07-17T14:38:35;96093.22;;;39.91;22.92
5462;BME280;912;48.130;11.348;2022-07-17T14:41:16;96087.97;;;42.08;22.69
5462;BME280;912;48.130;11.348;2022-07-17T14:43:58;96085.78;;;41.23;21.88
5462;BME280;912;48.130;11.348;2022-07-17T14:46:40;96084.06;;;42.77;21.52
5462;BME280;912;48.130;11.348;2022-07-17T14:49:22;96087.40;;;42.42;22.04
5462;BME280;912;48.130;11.348;2022-07-17T14:52:04;96088.80;;;43.27;21.58
5462;BME280;912;48.130;11.348;2022-07-17T14:54:45;96087.00;;;43.23;20.85
5462;BME280;912;48.130;11.348;2022-07-17T14:57:27;96089.23;;;41.58;21.58
5462;BME280;912;48.130;11.348;2022-07-17T15:00:09;96091.81;;;40.95;21.52
5462;BME280;912;48.130;11.348;2022-07-17T15:02:54;96091.28;;;41.29;21.03
5462;BME280;912;48.130;11.348;2022-07-17T15:05:36;96091.25;;;41.44;21.95
5462;BME280;912;48.130;11.348;2022-07-17T15:08:18;96088.61;;;42.08;20.44
5462;BME280;912;48.130;11.348;2022-07-17T15:11:03;96086.79;;;42.26;20.32
5462;BME280;912;48.130;11.348;2022-07-17T15:13:45;96085.84;;;43.28;20.64
5462;BME280;912;48.130;11.348;2022-07-17T15:16:26;96091.59;;;41.02;21.03
5462;BME280;912;48.130;11.348;2022-07-17T15:19:08;96099.00;;;39.96;22.00
5462;BME280;912;48.130;11.348;2022-07-17T15:21:50;96093.53;;;40.89;21.79
5462;BME280;912;48.130;11.348;2022-07-17T15:24:34;96096.34;;;39.79;22.18